Terminal Aerodrome Forecast
Issued by NWS Mt. Holly, NJ

Home | Current Version | Previous Version | Text Only | Print | Product List | Glossary On
Versions: 1 2 3 4 5 6 7 8 9 10 11 12 13 14 15 16 17 18 19 20 21 22 23
000
FTUS41 KPHI 302300
TAFPHL
TAF
KPHL 302336Z 3100/0106 35006KT P6SM FEW050
     FM310800 02004KT P6SM SCT250
     FM311600 05006KT P6SM SCT050
     FM312000 04008KT P6SM BKN040=

USA.gov is the U.S. government's official web portal to all federal, state and local government web resources and services.